createdAt,value
2019-02-08T00:01:42.793Z,6.70
2019-02-08T00:04:12.855Z,6.80
2019-02-08T00:06:42.944Z,6.80
2019-02-08T00:09:13.022Z,6.80
2019-02-08T00:11:43.088Z,6.80
2019-02-08T00:14:13.153Z,6.80
2019-02-08T00:16:43.225Z,6.80
2019-02-08T00:19:13.294Z,6.90
2019-02-08T00:21:43.379Z,6.90
2019-02-08T00:24:13.454Z,7.00
2019-02-08T00:26:43.549Z,7.00
2019-02-08T00:29:13.640Z,7.10
2019-02-08T00:31:44.971Z,7.10
2019-02-08T00:34:15.995Z,7.10
2019-02-08T00:36:46.083Z,7.10
2019-02-08T00:39:16.136Z,7.10
2019-02-08T00:41:46.220Z,7.10
2019-02-08T00:44:16.284Z,7.10
2019-02-08T00:46:46.363Z,7.10
2019-02-08T00:49:16.423Z,7.10
2019-02-08T00:51:46.505Z,7.20
2019-02-08T00:54:16.571Z,7.10
2019-02-08T00:56:46.645Z,7.10
2019-02-08T00:59:16.705Z,7.10
2019-02-08T01:01:46.783Z,7.10
2019-02-08T01:04:16.860Z,7.00
2019-02-08T01:06:46.937Z,7.00
2019-02-08T01:09:17.002Z,7.00
2019-02-08T01:11:47.074Z,7.00
2019-02-08T01:14:17.134Z,7.00
2019-02-08T01:16:47.209Z,7.00
2019-02-08T01:19:17.276Z,7.00
2019-02-08T01:21:47.335Z,7.00
2019-02-08T01:24:17.401Z,7.00
2019-02-08T01:26:47.474Z,7.00
2019-02-08T01:29:17.550Z,7.00
2019-02-08T01:31:47.605Z,6.90
2019-02-08T01:34:17.699Z,6.90
2019-02-08T01:36:47.763Z,6.90
2019-02-08T01:39:17.849Z,6.80
2019-02-08T01:41:47.908Z,6.80
2019-02-08T01:44:17.991Z,6.70
2019-02-08T01:46:48.044Z,6.70
2019-02-08T01:49:18.122Z,6.60
2019-02-08T01:51:48.185Z,6.60
2019-02-08T01:54:18.246Z,6.60
2019-02-08T01:56:48.312Z,6.70
2019-02-08T01:59:18.371Z,6.70
2019-02-08T02:01:48.442Z,6.70
2019-02-08T02:04:18.505Z,6.70
2019-02-08T02:06:48.584Z,6.70
2019-02-08T02:09:18.646Z,6.70
2019-02-08T02:11:48.717Z,6.80
2019-02-08T02:14:18.779Z,6.80
2019-02-08T02:16:48.861Z,6.80
2019-02-08T02:19:18.913Z,6.80
2019-02-08T02:21:48.984Z,6.80
2019-02-08T02:24:19.060Z,6.80
2019-02-08T02:26:49.378Z,6.80
2019-02-08T02:29:19.437Z,6.80
2019-02-08T02:31:49.515Z,6.80
2019-02-08T02:34:19.583Z,6.80
2019-02-08T02:36:49.656Z,6.70
2019-02-08T02:39:19.715Z,6.80
2019-02-08T02:41:49.792Z,6.80
2019-02-08T02:44:19.849Z,6.80
2019-02-08T02:46:49.917Z,6.80
2019-02-08T02:49:19.983Z,6.80
2019-02-08T02:51:50.102Z,6.80
2019-02-08T02:54:20.116Z,6.80
2019-02-08T02:56:50.202Z,6.80
2019-02-08T02:59:20.270Z,6.80
2019-02-08T03:01:50.346Z,6.80
2019-02-08T03:04:20.416Z,6.80
2019-02-08T03:06:50.484Z,6.80
2019-02-08T03:09:20.548Z,6.80
2019-02-08T03:11:50.622Z,6.80
2019-02-08T03:14:20.689Z,6.70
2019-02-08T03:16:50.855Z,6.70
2019-02-08T03:19:20.919Z,6.70
2019-02-08T03:21:51.019Z,6.70
2019-02-08T03:24:21.086Z,6.70
2019-02-08T03:26:51.169Z,6.70
2019-02-08T03:29:21.230Z,6.70
2019-02-08T03:31:51.381Z,6.70
2019-02-08T03:34:21.436Z,6.70
2019-02-08T03:36:51.511Z,6.70
2019-02-08T03:39:21.567Z,6.60
2019-02-08T03:41:51.637Z,6.60
2019-02-08T03:44:21.701Z,6.60
2019-02-08T03:46:51.780Z,6.70
2019-02-08T03:49:21.833Z,6.60
2019-02-08T03:51:51.911Z,6.60
2019-02-08T03:54:21.980Z,6.60
2019-02-08T03:56:52.049Z,6.70
2019-02-08T03:59:22.112Z,6.70
2019-02-08T04:01:52.193Z,6.70
2019-02-08T04:04:22.274Z,6.70
2019-02-08T04:06:52.346Z,6.70
2019-02-08T04:09:22.413Z,6.70
2019-02-08T04:11:52.836Z,6.70
2019-02-08T04:14:22.894Z,6.70
2019-02-08T04:16:52.987Z,6.70
2019-02-08T04:19:23.052Z,6.70
2019-02-08T04:21:53.127Z,6.70
2019-02-08T04:24:29.781Z,6.70
2019-02-08T04:26:55.456Z,6.80
2019-02-08T04:29:25.514Z,6.80
2019-02-08T04:31:55.591Z,6.80
2019-02-08T04:34:25.657Z,6.80
2019-02-08T04:36:55.726Z,6.80
2019-02-08T04:39:25.787Z,6.80
2019-02-08T04:41:55.930Z,6.80
2019-02-08T04:44:25.997Z,6.80
2019-02-08T04:46:56.075Z,6.90
2019-02-08T04:49:26.139Z,6.90
2019-02-08T04:51:56.218Z,6.90
2019-02-08T04:54:26.282Z,6.90
2019-02-08T04:56:56.354Z,6.90
2019-02-08T04:59:26.420Z,7.00
2019-02-08T05:01:56.751Z,7.00
2019-02-08T05:04:26.833Z,7.00
2019-02-08T05:06:56.903Z,7.00
2019-02-08T05:09:26.976Z,7.00
2019-02-08T05:11:57.044Z,7.00
2019-02-08T05:14:27.117Z,7.00
2019-02-08T05:16:57.191Z,7.00
2019-02-08T05:19:27.255Z,7.00
2019-02-08T05:21:57.340Z,7.10
2019-02-08T05:24:27.392Z,7.10
2019-02-08T05:26:57.474Z,7.10
2019-02-08T05:29:27.547Z,7.00
2019-02-08T05:31:57.617Z,7.00
2019-02-08T05:34:27.684Z,7.00
2019-02-08T05:36:57.759Z,7.00
2019-02-08T05:39:27.841Z,7.00
2019-02-08T05:41:57.888Z,7.00
2019-02-08T05:44:27.969Z,7.00
2019-02-08T05:46:58.148Z,7.00
2019-02-08T05:49:29.842Z,7.00
2019-02-08T05:51:59.980Z,7.00
2019-02-08T05:54:30.067Z,7.00
2019-02-08T05:57:00.177Z,7.00
2019-02-08T05:59:30.244Z,6.90
2019-02-08T06:02:00.311Z,6.90
2019-02-08T06:04:30.371Z,6.90
2019-02-08T06:07:00.559Z,6.90
2019-02-08T06:09:30.626Z,6.90
2019-02-08T06:12:00.700Z,6.90
2019-02-08T06:14:30.765Z,6.90
2019-02-08T06:17:00.835Z,6.90
2019-02-08T06:19:30.897Z,7.00
2019-02-08T06:22:00.970Z,7.00
2019-02-08T06:24:31.040Z,7.00
2019-02-08T06:27:01.118Z,7.00
2019-02-08T06:29:31.433Z,7.00
2019-02-08T06:32:01.528Z,7.00
2019-02-08T06:34:31.590Z,7.10
2019-02-08T06:37:01.667Z,7.10
2019-02-08T06:39:31.734Z,7.10
2019-02-08T06:42:01.810Z,7.10
2019-02-08T06:44:31.861Z,7.20
2019-02-08T06:47:01.933Z,7.20
2019-02-08T06:49:32.010Z,7.20
2019-02-08T06:52:02.102Z,7.20
2019-02-08T06:54:32.169Z,7.30
2019-02-08T06:57:05.511Z,7.30
2019-02-08T06:59:37.220Z,7.30
2019-02-08T07:02:20.845Z,7.30
2019-02-08T07:04:52.558Z,7.30
2019-02-08T07:07:24.284Z,7.30
2019-02-08T07:10:01.932Z,7.30
2019-02-08T07:12:33.646Z,7.30
2019-02-08T07:15:09.442Z,7.30
2019-02-08T07:17:43.838Z,7.40
2019-02-08T07:20:33.790Z,7.40
2019-02-08T07:23:17.742Z,7.40
2019-02-08T07:26:09.739Z,7.40
2019-02-08T07:28:41.457Z,7.40
2019-02-08T07:31:25.257Z,7.40
2019-02-08T07:33:59.910Z,7.40
2019-02-08T07:36:37.367Z,7.40
2019-02-08T07:39:13.502Z,7.40
2019-02-08T07:41:51.101Z,7.40
2019-02-08T07:44:23.359Z,7.40
2019-02-08T07:47:01.112Z,7.40
2019-02-08T07:52:46.729Z,7.40
2019-02-08T07:55:25.901Z,7.40
2019-02-08T07:58:01.502Z,7.40
2019-02-08T08:00:39.419Z,7.40
2019-02-08T08:03:13.889Z,7.50
2019-02-08T08:05:51.899Z,7.50
2019-02-08T08:08:26.670Z,7.50
2019-02-08T08:11:01.576Z,7.50
2019-02-08T08:13:45.505Z,7.50
2019-02-08T08:16:19.936Z,7.50
2019-02-08T08:18:51.641Z,7.50
2019-02-08T08:21:29.568Z,7.50
2019-02-08T08:27:26.302Z,7.50
2019-02-08T08:30:09.959Z,7.50
2019-02-08T08:32:43.082Z,7.60
2019-02-08T08:35:23.791Z,7.60
2019-02-08T08:38:35.876Z,7.60
2019-02-08T08:41:40.178Z,7.60
2019-02-08T08:44:43.772Z,7.70
2019-02-08T08:47:46.079Z,7.70
2019-02-08T08:50:38.944Z,7.70
2019-02-08T08:53:37.894Z,7.70
2019-02-08T08:56:21.721Z,7.70
2019-02-08T08:59:02.636Z,7.70
2019-02-08T09:02:14.771Z,7.70
2019-02-08T09:05:29.084Z,7.80
2019-02-08T09:08:15.777Z,7.80
2019-02-08T09:11:32.275Z,7.80
2019-02-08T09:14:43.479Z,7.90
2019-02-08T09:17:42.288Z,7.90
2019-02-08T09:20:17.243Z,8.00
2019-02-08T09:23:05.173Z,8.00
2019-02-08T09:26:26.890Z,8.00
2019-02-08T09:29:18.626Z,8.00
2019-02-08T09:32:23.631Z,8.10
2019-02-08T09:35:40.774Z,8.10
2019-02-08T09:38:47.618Z,8.20
2019-02-08T09:42:05.889Z,8.20
2019-02-08T09:45:14.961Z,8.20
2019-02-08T09:48:20.918Z,8.30
2019-02-08T09:51:01.350Z,8.30
2019-02-08T09:53:52.807Z,8.30
2019-02-08T09:56:57.736Z,8.30
2019-02-08T09:59:56.236Z,8.40
2019-02-08T10:02:56.291Z,8.40
2019-02-08T10:05:52.331Z,8.50
2019-02-08T10:09:01.949Z,8.50
2019-02-08T10:11:52.633Z,8.50
2019-02-08T10:14:55.765Z,8.60
2019-02-08T10:17:42.509Z,8.60
2019-02-08T10:20:46.245Z,8.70
2019-02-08T10:24:00.281Z,8.70
2019-02-08T10:27:11.400Z,8.70
2019-02-08T10:30:02.750Z,8.80
2019-02-08T10:33:11.519Z,8.80
2019-02-08T10:36:24.574Z,8.80
2019-02-08T10:39:34.398Z,8.90
2019-02-08T10:42:17.280Z,8.90
2019-02-08T10:45:33.270Z,9.00
2019-02-08T10:48:17.079Z,9.00
2019-02-08T10:51:34.279Z,9.10
2019-02-08T10:54:23.926Z,9.10
2019-02-08T10:57:19.742Z,9.10
2019-02-08T11:00:26.244Z,9.10
2019-02-08T11:03:39.181Z,9.10
2019-02-08T11:06:52.835Z,9.10
2019-02-08T11:09:55.972Z,9.20
2019-02-08T11:13:12.364Z,9.20
2019-02-08T11:16:09.708Z,9.20
2019-02-08T11:19:10.344Z,9.20
2019-02-08T11:21:40.410Z,9.20
2019-02-08T11:24:10.476Z,9.30
2019-02-08T11:26:40.536Z,9.30
2019-02-08T11:29:10.605Z,9.30
2019-02-08T11:31:40.670Z,9.40
2019-02-08T11:34:10.748Z,9.40
2019-02-08T11:36:40.823Z,9.40
2019-02-08T11:39:14.188Z,9.50
2019-02-08T11:41:44.707Z,9.50
2019-02-08T11:44:14.782Z,9.50
2019-02-08T11:46:44.840Z,9.60
2019-02-08T11:49:14.914Z,9.60
2019-02-08T11:51:44.969Z,9.60
2019-02-08T11:54:15.055Z,9.60
2019-02-08T11:56:45.109Z,9.60
2019-02-08T11:59:15.183Z,9.60
2019-02-08T12:01:46.006Z,9.60
2019-02-08T12:04:16.150Z,9.60
2019-02-08T12:06:46.204Z,9.60
2019-02-08T12:09:16.288Z,9.60
2019-02-08T12:11:46.344Z,9.60
2019-02-08T12:14:17.387Z,9.60
2019-02-08T12:16:47.442Z,9.60
2019-02-08T12:19:17.527Z,9.60
2019-02-08T12:21:47.572Z,9.60
2019-02-08T12:24:17.685Z,9.60
2019-02-08T12:26:47.737Z,9.60
2019-02-08T12:29:18.889Z,9.60
2019-02-08T12:31:48.942Z,9.60
2019-02-08T12:34:19.028Z,9.70
2019-02-08T12:36:49.120Z,9.70
2019-02-08T12:39:19.192Z,9.70
2019-02-08T12:41:49.255Z,9.70
2019-02-08T12:44:19.328Z,9.80
2019-02-08T12:46:49.401Z,9.80
2019-02-08T12:49:19.497Z,9.80
2019-02-08T12:51:49.552Z,9.80
2019-02-08T12:54:19.622Z,9.80
2019-02-08T12:56:49.675Z,9.90
2019-02-08T12:59:19.741Z,9.90
2019-02-08T13:01:49.803Z,9.90
2019-02-08T13:04:19.869Z,9.90
2019-02-08T13:06:49.965Z,9.90
2019-02-08T13:09:19.998Z,10.00
2019-02-08T13:11:50.069Z,10.00
2019-02-08T13:14:20.136Z,10.00
2019-02-08T13:16:50.214Z,10.00
2019-02-08T13:19:20.281Z,10.10
2019-02-08T13:21:50.370Z,10.10
2019-02-08T13:24:20.436Z,10.20
2019-02-08T13:26:53.023Z,10.10
2019-02-08T13:29:22.269Z,10.20
2019-02-08T13:31:52.354Z,10.20
2019-02-08T13:34:25.191Z,10.20
2019-02-08T13:36:55.270Z,10.20
2019-02-08T13:39:26.977Z,10.30
2019-02-08T13:41:59.933Z,10.30
2019-02-08T13:44:29.996Z,10.20
2019-02-08T13:47:00.060Z,10.20
2019-02-08T13:49:30.150Z,10.30
2019-02-08T13:52:00.206Z,10.30
2019-02-08T13:54:30.294Z,10.30
2019-02-08T13:57:01.990Z,10.20
2019-02-08T13:59:32.059Z,10.30
2019-02-08T14:02:04.838Z,10.30
2019-02-08T14:04:35.044Z,10.30
2019-02-08T14:07:05.183Z,10.30
2019-02-08T14:09:35.264Z,10.30
2019-02-08T14:12:17.655Z,10.30
2019-02-08T14:14:47.730Z,10.30
2019-02-08T14:17:18.111Z,10.30
2019-02-08T14:19:48.182Z,10.30
2019-02-08T14:22:18.246Z,10.30
2019-02-08T14:24:48.495Z,10.30
2019-02-08T14:27:18.563Z,10.30
2019-02-08T14:29:48.622Z,10.30
2019-02-08T14:32:18.686Z,10.30
2019-02-08T14:34:48.761Z,10.30
2019-02-08T14:37:18.828Z,10.30
2019-02-08T14:39:48.898Z,10.40
2019-02-08T14:42:18.960Z,10.40
2019-02-08T14:44:49.736Z,10.40
2019-02-08T14:47:19.787Z,10.30
2019-02-08T14:49:50.591Z,10.40
2019-02-08T14:52:20.691Z,10.40
2019-02-08T14:54:50.761Z,10.30
2019-02-08T14:57:20.823Z,10.30
2019-02-08T14:59:50.903Z,10.30
2019-02-08T15:02:20.961Z,10.40
2019-02-08T15:04:51.025Z,10.40
2019-02-08T15:07:21.161Z,10.40
2019-02-08T15:09:51.209Z,10.40
2019-02-08T15:12:21.289Z,10.40
2019-02-08T15:14:51.413Z,10.40
2019-02-08T15:17:21.750Z,10.40
2019-02-08T15:19:51.813Z,10.40
2019-02-08T15:22:21.887Z,10.40
2019-02-08T15:24:51.961Z,10.40
2019-02-08T15:27:24.365Z,10.40
2019-02-08T15:29:54.046Z,10.40
2019-02-08T15:32:24.113Z,10.40
2019-02-08T15:34:54.189Z,10.40
2019-02-08T15:37:24.252Z,10.40
2019-02-08T15:39:54.324Z,10.40
2019-02-08T15:42:24.385Z,10.40
2019-02-08T15:44:54.461Z,10.40
2019-02-08T15:47:24.525Z,10.40
2019-02-08T15:49:54.606Z,10.40
2019-02-08T15:52:24.673Z,10.40
2019-02-08T15:54:54.753Z,10.40
2019-02-08T15:57:31.785Z,10.40
2019-02-08T15:59:56.585Z,10.40
2019-02-08T16:02:26.658Z,10.30
2019-02-08T16:04:56.724Z,10.40
2019-02-08T16:07:26.797Z,10.40
2019-02-08T16:09:56.874Z,10.40
2019-02-08T16:12:26.940Z,10.30
2019-02-08T16:14:57.027Z,10.30
2019-02-08T16:17:27.091Z,10.40
2019-02-08T16:19:57.171Z,10.30
2019-02-08T16:22:27.244Z,10.30
2019-02-08T16:24:57.321Z,10.40
2019-02-08T16:27:27.399Z,10.40
2019-02-08T16:29:57.470Z,10.40
2019-02-08T16:32:27.538Z,10.30
2019-02-08T16:34:57.613Z,10.30
2019-02-08T16:37:27.691Z,10.30
2019-02-08T16:39:57.764Z,10.30
2019-02-08T16:42:27.830Z,10.30
2019-02-08T16:44:57.886Z,10.30
2019-02-08T16:47:27.962Z,10.30
2019-02-08T16:49:58.025Z,10.30
2019-02-08T16:52:28.114Z,10.30
2019-02-08T16:55:01.192Z,10.30
2019-02-08T16:57:31.268Z,10.30
2019-02-08T17:00:01.352Z,10.30
2019-02-08T17:02:31.410Z,10.20
2019-02-08T17:05:01.466Z,10.20
2019-02-08T17:07:31.633Z,10.20
2019-02-08T17:10:01.696Z,10.20
2019-02-08T17:12:31.782Z,10.20
2019-02-08T17:15:01.904Z,10.20
2019-02-08T17:17:31.920Z,10.20
2019-02-08T17:20:01.981Z,10.20
2019-02-08T17:22:32.058Z,10.30
2019-02-08T17:25:02.153Z,10.30
2019-02-08T17:27:32.220Z,10.30
2019-02-08T17:30:16.206Z,10.30
2019-02-08T17:32:46.278Z,10.30
2019-02-08T17:35:19.346Z,10.30
2019-02-08T17:37:49.423Z,10.30
2019-02-08T17:40:22.905Z,10.30
2019-02-08T17:42:52.995Z,10.30
2019-02-08T17:45:23.124Z,10.30
2019-02-08T17:47:53.898Z,10.30
2019-02-08T17:50:26.944Z,10.30
2019-02-08T17:52:57.008Z,10.30
2019-02-08T17:55:28.818Z,10.30
2019-02-08T17:58:03.583Z,10.30
2019-02-08T18:00:44.827Z,10.30
2019-02-08T18:03:14.901Z,10.40
2019-02-08T18:05:44.965Z,10.40
2019-02-08T18:08:15.307Z,10.40
2019-02-08T18:10:45.545Z,10.30
2019-02-08T18:13:16.862Z,10.30
2019-02-08T18:15:46.933Z,10.30
2019-02-08T18:18:18.132Z,10.30
2019-02-08T18:20:54.878Z,10.30
2019-02-08T18:23:24.946Z,10.30
2019-02-08T18:25:55.032Z,10.30
2019-02-08T18:28:25.108Z,10.30
2019-02-08T18:30:55.195Z,10.30
2019-02-08T18:33:25.251Z,10.30
2019-02-08T18:35:55.318Z,10.30
2019-02-08T18:38:25.418Z,10.30
2019-02-08T18:40:55.452Z,10.30
2019-02-08T18:43:25.571Z,10.30
2019-02-08T18:45:55.644Z,10.40
2019-02-08T18:48:25.741Z,10.30
2019-02-08T18:50:56.087Z,10.20
2019-02-08T18:53:26.138Z,10.20
2019-02-08T18:55:59.681Z,10.20
2019-02-08T18:58:29.735Z,10.10
2019-02-08T19:01:02.214Z,10.10
2019-02-08T19:03:32.263Z,9.90
2019-02-08T19:06:02.330Z,9.80
2019-02-08T19:08:32.379Z,9.70
2019-02-08T19:11:02.451Z,9.60
2019-02-08T19:13:32.598Z,9.50
2019-02-08T19:16:02.685Z,9.40
2019-02-08T19:18:34.391Z,9.40
2019-02-08T19:21:04.453Z,9.30
2019-02-08T19:23:34.504Z,9.30
2019-02-08T19:26:04.584Z,9.20
2019-02-08T19:28:34.646Z,9.20
2019-02-08T19:31:04.711Z,9.10
2019-02-08T19:33:34.765Z,9.10
2019-02-08T19:36:06.806Z,9.10
2019-02-08T19:38:36.864Z,9.10
2019-02-08T19:41:06.959Z,9.10
2019-02-08T19:43:37.024Z,9.00
2019-02-08T19:46:07.101Z,9.00
2019-02-08T19:48:37.160Z,9.00
2019-02-08T19:51:07.231Z,9.00
2019-02-08T19:53:37.291Z,9.00
2019-02-08T19:56:07.362Z,8.90
2019-02-08T19:58:37.428Z,8.90
2019-02-08T20:01:07.494Z,8.90
2019-02-08T20:03:37.593Z,8.90
2019-02-08T20:06:07.674Z,8.90
2019-02-08T20:08:37.968Z,8.90
2019-02-08T20:11:08.036Z,8.90
2019-02-08T20:13:38.091Z,8.90
2019-02-08T20:16:08.162Z,8.90
2019-02-08T20:18:38.216Z,8.90
2019-02-08T20:21:08.278Z,8.90
2019-02-08T20:23:38.336Z,8.90
2019-02-08T20:26:10.320Z,8.90
2019-02-08T20:28:42.469Z,8.90
2019-02-08T20:31:12.139Z,8.90
2019-02-08T20:33:42.188Z,8.90
2019-02-08T20:36:12.264Z,8.80
2019-02-08T20:38:42.338Z,8.80
2019-02-08T20:41:14.224Z,8.80
2019-02-08T20:43:44.436Z,8.80
2019-02-08T20:46:14.684Z,8.80
2019-02-08T20:48:44.991Z,8.80
2019-02-08T20:51:15.062Z,8.80
2019-02-08T20:53:45.111Z,8.80
2019-02-08T20:56:15.184Z,8.80
2019-02-08T20:58:50.057Z,8.90
2019-02-08T21:01:17.569Z,8.90
2019-02-08T21:03:47.633Z,8.90
2019-02-08T21:06:17.704Z,8.90
2019-02-08T21:08:47.765Z,8.90
2019-02-08T21:11:17.816Z,8.90
2019-02-08T21:13:47.924Z,9.00
2019-02-08T21:16:17.946Z,8.90
2019-02-08T21:18:48.003Z,9.00
2019-02-08T21:21:18.056Z,9.00
2019-02-08T21:23:48.120Z,9.00
2019-02-08T21:26:18.184Z,9.00
2019-02-08T21:28:48.240Z,9.00
2019-02-08T21:31:18.548Z,9.00
2019-02-08T21:33:49.571Z,9.00
2019-02-08T21:36:19.622Z,9.10
2019-02-08T21:38:49.680Z,9.10
2019-02-08T21:41:20.238Z,9.00
2019-02-08T21:43:50.364Z,9.00
2019-02-08T21:46:21.377Z,9.00
2019-02-08T21:48:51.446Z,9.00
2019-02-08T21:51:21.520Z,9.00
2019-02-08T21:53:51.592Z,9.00
2019-02-08T21:56:21.651Z,9.00
2019-02-08T21:58:51.710Z,9.00
2019-02-08T22:01:21.769Z,8.90
2019-02-08T22:03:51.851Z,9.00
2019-02-08T22:06:21.920Z,9.00
2019-02-08T22:08:51.971Z,9.10
2019-02-08T22:11:22.031Z,9.10
2019-02-08T22:13:52.082Z,9.10
2019-02-08T22:16:22.143Z,9.10
2019-02-08T22:18:52.203Z,9.10
2019-02-08T22:21:22.264Z,9.10
2019-02-08T22:23:52.316Z,9.10
2019-02-08T22:26:22.397Z,9.20
2019-02-08T22:28:52.448Z,9.20
2019-02-08T22:31:22.510Z,9.10
2019-02-08T22:33:52.560Z,9.20
2019-02-08T22:36:22.616Z,9.20
2019-02-08T22:38:52.671Z,9.20
2019-02-08T22:41:22.765Z,9.20
2019-02-08T22:43:52.835Z,9.20
2019-02-08T22:46:22.908Z,9.20
2019-02-08T22:48:52.973Z,9.20
2019-02-08T22:51:25.615Z,9.20
2019-02-08T22:53:54.790Z,9.30
2019-02-08T22:56:24.857Z,9.30
2019-02-08T22:58:55.290Z,9.30
2019-02-08T23:01:27.523Z,9.30
2019-02-08T23:03:57.588Z,9.30
2019-02-08T23:06:27.645Z,9.30
2019-02-08T23:08:57.694Z,9.30
2019-02-08T23:11:27.758Z,9.30
2019-02-08T23:13:57.810Z,9.30
2019-02-08T23:16:27.872Z,9.30
2019-02-08T23:18:57.925Z,9.30
2019-02-08T23:21:28.000Z,9.30
2019-02-08T23:23:58.050Z,9.30
2019-02-08T23:26:28.303Z,9.30
2019-02-08T23:28:58.359Z,9.40
2019-02-08T23:31:28.422Z,9.30
2019-02-08T23:33:58.474Z,9.40
2019-02-08T23:36:30.181Z,9.30
2019-02-08T23:39:00.268Z,9.30
2019-02-08T23:41:30.335Z,9.30
2019-02-08T23:44:02.024Z,9.30
2019-02-08T23:46:32.085Z,9.20
2019-02-08T23:49:03.311Z,9.20
2019-02-08T23:51:33.383Z,9.30
2019-02-08T23:54:03.462Z,9.30
2019-02-08T23:56:33.537Z,9.30
2019-02-08T23:59:03.600Z,9.30
